Time;durP1;ratioP1;P1;durP2;ratioP2;P2;SDS_P1;SDS_P2;PMS_P1;PMS_P2;Temp;Humidity;BMP_temperature;BMP_pressure;BME280_temperature;BME280_humidity;BME280_pressure;Samples;Min_cycle;Max_cycle;Signal;HPM_P1;HPM_P2
2022/08/10 00:01:24;;;;;;;;;;;;;;;16.87;56.75;100538.97;4998127;28;1356;-52
2022/08/10 00:03:50;;;;;;;;;;;;;;;16.84;56.89;100525.78;4997412;28;2038;-53
2022/08/10 00:06:16;;;;;;;;;;;;;;;16.87;56.79;100522.47;4996216;28;1035;-54
2022/08/10 00:08:41;;;;;;;;;;;;;;;16.84;56.66;100523.03;4998323;28;971;-53
2022/08/10 00:11:07;;;;;;;;;;;;;;;16.87;56.49;100533.47;4997724;28;1414;-53
2022/08/10 00:13:32;;;;;;;;;;;;;;;16.87;56.66;100533.47;4998180;28;967;-51
2022/08/10 00:15:57;;;;;;;;;;;;;;;16.89;56.48;100536.78;4997997;28;1031;-55
2022/08/10 00:18:23;;;;;;;;;;;;;;;16.84;56.79;100531.28;4997681;28;1907;-54
2022/08/10 00:20:48;;;;;;;;;;;;;;;16.87;56.85;100533.47;4997209;28;1055;-55
2022/08/10 00:23:14;;;;;;;;;;;;;;;16.85;56.76;100538.44;4997295;28;1162;-54
2022/08/10 00:25:39;;;;;;;;;;;;;;;16.86;56.81;100537.34;4997794;28;951;-54
2022/08/10 00:28:05;;;;;;;;;;;;;;;16.88;56.46;100541.44;4997108;28;1093;-52
2022/08/10 00:30:30;;;;;;;;;;;;;;;16.88;56.75;100532.38;4995371;28;975;-51
2022/08/10 00:32:56;;;;;;;;;;;;;;;16.86;56.72;100532.66;4991021;28;983;-50
2022/08/10 00:35:21;;;;;;;;;;;;;;;16.87;56.40;100519.72;4994456;28;1840;-51
2022/08/10 00:37:47;;;;;;;;;;;;;;;16.86;56.60;100523.59;4996171;28;1963;-51
2022/08/10 00:40:12;;;;;;;;;;;;;;;16.86;56.74;100532.66;4990821;28;1038;-50
2022/08/10 00:42:38;;;;;;;;;;;;;;;16.85;56.46;100522.75;4997173;28;1122;-52
2022/08/10 00:45:03;;;;;;;;;;;;;;;16.85;56.54;100519.22;4994556;28;1006;-52
2022/08/10 00:47:29;;;;;;;;;;;;;;;16.87;56.72;100519.72;4997313;28;1105;-53
2022/08/10 00:49:54;;;;;;;;;;;;;;;16.84;56.69;100518.38;4997112;28;1070;-52
2022/08/10 00:52:20;;;;;;;;;;;;;;;16.83;56.50;100521.41;4992784;28;995;-51
2022/08/10 00:54:45;;;;;;;;;;;;;;;16.87;56.42;100522.47;4991404;28;1068;-54
2022/08/10 00:57:10;;;;;;;;;;;;;;;16.84;56.71;100523.03;4989029;28;1082;-51
2022/08/10 00:59:36;;;;;;;;;;;;;;;16.82;56.64;100517.03;4995448;28;1982;-50
2022/08/10 01:02:01;;;;;;;;;;;;;;;16.77;56.60;100513.19;4996941;28;1069;-53
2022/08/10 01:04:27;;;;;;;;;;;;;;;16.82;56.67;100525.28;4995785;28;1880;-53
2022/08/10 01:07:11;;;;;;;;;;;;;;;16.77;56.88;100521.44;4993253;28;1062;-52
2022/08/10 01:09:39;;;;;;;;;;;;;;;16.83;56.75;100521.41;4994429;28;1030;-52
2022/08/10 01:12:05;;;;;;;;;;;;;;;16.78;56.79;100522.25;5011287;28;1057;-50
2022/08/10 01:14:38;;;;;;;;;;;;;;;16.80;56.51;100517.28;4996567;28;1035;-48
2022/08/10 01:17:09;;;;;;;;;;;;;;;16.76;56.67;100530.78;5012141;28;963;-51
2022/08/10 01:19:54;;;;;;;;;;;;;;;16.80;56.60;100519.22;4996356;28;1989;-49
2022/08/10 01:22:22;;;;;;;;;;;;;;;16.81;56.63;100515.38;4990960;28;1007;-50
2022/08/10 01:24:54;;;;;;;;;;;;;;;16.80;56.72;100509.03;4996277;28;1204;-49
2022/08/10 01:27:27;;;;;;;;;;;;;;;16.76;56.71;100511.56;4996648;28;995;-52
2022/08/10 01:29:53;;;;;;;;;;;;;;;16.74;56.79;100518.41;4996519;28;1066;-49
2022/08/10 01:32:34;;;;;;;;;;;;;;;16.76;56.95;100508.81;4996754;28;875;-48
2022/08/10 01:35:20;;;;;;;;;;;;;;;16.76;56.67;100505.25;4993378;28;1070;-51
2022/08/10 01:37:47;;;;;;;;;;;;;;;16.77;56.82;100510.47;4995962;28;1973;-51
2022/08/10 01:40:13;;;;;;;;;;;;;;;16.77;56.79;100513.19;4990260;28;999;-50
2022/08/10 01:42:39;;;;;;;;;;;;;;;16.82;56.67;100508.78;4994620;28;1204;-49
2022/08/10 01:45:05;;;;;;;;;;;;;;;16.77;56.99;100496.72;4988365;28;1085;-49
2022/08/10 01:50:34;;;;;;;;;;;;;;;16.77;56.69;100517.84;4996368;28;1003;-54
2022/08/10 01:53:04;;;;;;;;;;;;;;;16.75;56.62;100501.66;4983671;28;1066;-50
2022/08/10 01:55:30;;;;;;;;;;;;;;;16.72;56.79;100513.22;4991636;28;1205;-52
2022/08/10 01:57:55;;;;;;;;;;;;;;;16.72;56.93;100518.72;4994179;28;1898;-54
2022/08/10 02:00:21;;;;;;;;;;;;;;;16.74;56.91;100521.16;4991354;28;932;-49
2022/08/10 02:02:46;;;;;;;;;;;;;;;16.77;56.68;100506.88;4992537;28;991;-50
2022/08/10 02:05:12;;;;;;;;;;;;;;;16.74;56.71;100519.22;5011966;28;1010;-51
2022/08/10 02:07:37;;;;;;;;;;;;;;;16.71;56.79;100508.81;4992733;28;995;-51
2022/08/10 02:10:03;;;;;;;;;;;;;;;16.73;56.53;100517.59;4997422;28;1140;-52
2022/08/10 02:12:29;;;;;;;;;;;;;;;16.73;56.54;100503.88;5000187;28;990;-52
2022/08/10 02:14:56;;;;;;;;;;;;;;;16.73;56.84;100516.78;4994603;28;1118;-52
2022/08/10 02:17:24;;;;;;;;;;;;;;;16.74;56.72;100512.94;4990559;28;999;-50
2022/08/10 02:19:49;;;;;;;;;;;;;;;16.72;56.56;100513.22;4994587;28;1117;-50
2022/08/10 02:22:15;;;;;;;;;;;;;;;16.75;56.68;100518.13;5000141;28;1132;-52
2022/08/10 02:24:40;;;;;;;;;;;;;;;16.69;56.68;100511.03;4999166;28;1153;-50
2022/08/10 02:27:06;;;;;;;;;;;;;;;16.68;56.97;100514.88;5015426;28;990;-51
2022/08/10 02:29:31;;;;;;;;;;;;;;;16.73;56.62;100514.88;5000356;28;991;-50
2022/08/10 02:31:57;;;;;;;;;;;;;;;16.71;56.64;100519.00;4998187;28;1121;-49
2022/08/10 02:34:22;;;;;;;;;;;;;;;16.66;56.70;100516.25;4996891;28;979;-49
2022/08/10 02:36:48;;;;;;;;;;;;;;;16.71;56.65;100517.06;5000005;28;1113;-51
2022/08/10 02:39:14;;;;;;;;;;;;;;;16.76;56.57;100519.78;4990505;28;1983;-49
2022/08/10 02:41:41;;;;;;;;;;;;;;;16.72;56.51;100517.91;5015087;28;982;-53
2022/08/10 02:44:08;;;;;;;;;;;;;;;16.71;56.58;100519.78;4996469;28;1063;-53
2022/08/10 02:46:38;;;;;;;;;;;;;;;16.71;56.72;100519.78;5010414;28;1062;-52
2022/08/10 02:49:04;;;;;;;;;;;;;;;16.69;56.49;100521.19;4999792;28;1049;-51
2022/08/10 02:51:32;;;;;;;;;;;;;;;16.69;56.73;100530.25;4999242;28;982;-51
2022/08/10 02:54:02;;;;;;;;;;;;;;;16.70;56.72;100515.41;5014096;28;1187;-54
2022/08/10 02:56:31;;;;;;;;;;;;;;;16.66;56.59;100517.09;4998469;28;1236;-55
2022/08/10 02:59:04;;;;;;;;;;;;;;;16.68;56.58;100509.38;5012377;28;1909;-55
2022/08/10 03:01:31;;;;;;;;;;;;;;;16.64;56.99;100510.22;4997954;28;1157;-53
2022/08/10 03:04:07;;;;;;;;;;;;;;;17.43;58.63;100518.63;4999407;28;1058;-52
2022/08/10 03:06:33;;;;;;;;;;;;;;;17.53;59.12;100525.97;4996109;28;1984;-53
2022/08/10 03:08:59;;;;;;;;;;;;;;;17.24;58.58;100521.22;5013808;28;838;-49
2022/08/10 03:11:25;;;;;;;;;;;;;;;17.18;58.11;100533.34;4997748;28;1201;-54
2022/08/10 03:13:51;;;;;;;;;;;;;;;17.10;57.74;100526.53;4998789;28;1077;-49
2022/08/10 03:16:16;;;;;;;;;;;;;;;17.06;57.35;100537.25;4997749;28;1161;-50
2022/08/10 03:18:42;;;;;;;;;;;;;;;17.01;57.38;100542.78;4998366;28;1910;-52
2022/08/10 03:21:07;;;;;;;;;;;;;;;16.99;57.05;100542.22;4989979;28;939;-50
2022/08/10 03:23:33;;;;;;;;;;;;;;;16.96;57.17;100536.47;4983741;28;1062;-51
2022/08/10 03:25:58;;;;;;;;;;;;;;;16.94;56.97;100539.50;4997972;28;1010;-49
2022/08/10 03:28:27;;;;;;;;;;;;;;;16.99;56.70;100534.00;5012079;28;1014;-50
2022/08/10 03:30:52;;;;;;;;;;;;;;;16.90;56.81;100538.41;4996400;28;1011;-49
2022/08/10 03:33:19;;;;;;;;;;;;;;;16.90;56.81;100538.41;4995764;28;884;-47
2022/08/10 03:35:44;;;;;;;;;;;;;;;16.87;57.01;100534.31;5009543;28;1046;-48
2022/08/10 03:38:09;;;;;;;;;;;;;;;16.87;56.95;100539.78;4996741;28;2346;-51
2022/08/10 03:40:35;;;;;;;;;;;;;;;16.91;56.71;100534.56;4993112;28;1085;-48
2022/08/10 03:43:00;;;;;;;;;;;;;;;16.87;56.61;100544.44;5009509;28;1006;-52
2022/08/10 03:45:26;;;;;;;;;;;;;;;16.86;56.72;100586.75;5008024;28;1023;-48
2022/08/10 03:47:51;;;;;;;;;;;;;;;16.81;57.05;100548.31;5008248;28;1383;-49
2022/08/10 03:50:17;;;;;;;;;;;;;;;16.83;57.38;100548.84;4996570;28;1113;-52
2022/08/10 03:52:42;;;;;;;;;;;;;;;16.87;57.30;100583.75;4990588;28;1125;-51
2022/08/10 03:55:08;;;;;;;;;;;;;;;16.84;57.23;100550.50;5006148;28;1054;-50
2022/08/10 03:57:34;;;;;;;;;;;;;;;16.86;57.01;100543.63;5010272;28;1977;-50
2022/08/10 03:59:59;;;;;;;;;;;;;;;16.82;57.11;100574.69;5013202;28;1019;-52
2022/08/10 04:02:24;;;;;;;;;;;;;;;16.88;57.15;100568.91;4995614;28;1140;-53
2022/08/10 04:04:50;;;;;;;;;;;;;;;16.86;57.11;100545.56;4997110;28;1093;-53
2022/08/10 04:07:15;;;;;;;;;;;;;;;16.84;57.06;100537.59;5007556;28;2386;-49
2022/08/10 04:09:41;;;;;;;;;;;;;;;16.81;57.14;100540.09;4991286;28;894;-49
2022/08/10 04:12:06;;;;;;;;;;;;;;;16.76;57.24;100544.50;4991648;28;1027;-51
2022/08/10 04:14:32;;;;;;;;;;;;;;;16.80;56.92;100550.22;4988087;28;1197;-49
2022/08/10 04:16:57;;;;;;;;;;;;;;;16.82;56.96;100560.97;4997631;28;1101;-53
2022/08/10 04:19:22;;;;;;;;;;;;;;;16.80;56.91;100552.97;4992211;28;1914;-50
2022/08/10 04:21:53;;;;;;;;;;;;;;;16.81;56.90;100556.56;4988681;28;1077;-52
2022/08/10 04:24:20;;;;;;;;;;;;;;;16.79;56.70;100554.09;5010139;28;1030;-54
2022/08/10 04:26:45;;;;;;;;;;;;;;;16.83;56.65;100554.34;4993408;28;1180;-50
2022/08/10 04:29:11;;;;;;;;;;;;;;;16.80;56.68;100552.97;4994510;28;1023;-50
2022/08/10 04:31:36;;;;;;;;;;;;;;;16.82;57.11;100547.25;4988193;28;1086;-50
2022/08/10 04:34:01;;;;;;;;;;;;;;;16.79;56.77;100547.78;5006640;28;874;-51
2022/08/10 04:36:27;;;;;;;;;;;;;;;16.81;56.77;100551.06;4989481;28;2339;-53
2022/08/10 04:38:52;;;;;;;;;;;;;;;16.79;56.81;100567.00;4994226;28;1879;-50
2022/08/10 04:41:18;;;;;;;;;;;;;;;16.77;56.72;100562.63;4986040;28;1003;-53
2022/08/10 04:43:43;;;;;;;;;;;;;;;16.75;56.82;100561.25;4986750;28;1031;-52
2022/08/10 04:46:09;;;;;;;;;;;;;;;16.76;56.91;100571.97;4985668;28;936;-50
2022/08/10 04:48:34;;;;;;;;;;;;;;;16.72;56.85;100570.88;4980177;28;982;-51
2022/08/10 04:51:00;;;;;;;;;;;;;;;16.70;56.99;100569.50;4988022;28;1161;-53
2022/08/10 04:53:25;;;;;;;;;;;;;;;16.73;56.80;100555.22;4996290;28;1082;-53
2022/08/10 04:55:54;;;;;;;;;;;;;;;16.72;56.75;100564.56;5036496;27;1378741;-50
2022/08/10 04:58:19;;;;;;;;;;;;;;;16.72;56.91;100562.63;5080152;28;982;-50
2022/08/10 05:00:45;;;;;;;;;;;;;;;16.73;56.62;100546.97;5079349;28;1056;-50
2022/08/10 05:03:10;;;;;;;;;;;;;;;16.73;56.78;100557.94;5083810;28;1005;-50
2022/08/10 05:05:35;;;;;;;;;;;;;;;16.72;56.77;100565.38;5083366;28;965;-51
2022/08/10 05:08:01;;;;;;;;;;;;;;;16.69;56.77;100574.19;5077517;28;1904;-50
2022/08/10 05:10:26;;;;;;;;;;;;;;;16.72;56.79;100559.88;5086259;28;1110;-50
2022/08/10 05:12:52;;;;;;;;;;;;;;;16.70;56.94;100559.34;5090753;28;1116;-51
2022/08/10 05:15:18;;;;;;;;;;;;;;;16.72;56.77;100565.38;5074795;28;1905;-45
2022/08/10 05:17:43;;;;;;;;;;;;;;;16.73;56.70;100569.78;5087161;28;1142;-50
2022/08/10 05:20:09;;;;;;;;;;;;;;;16.71;56.93;100563.72;5082148;28;1131;-48
2022/08/10 05:22:36;;;;;;;;;;;;;;;16.69;56.78;100559.63;5086426;28;1064;-52
2022/08/10 05:25:02;;;;;;;;;;;;;;;16.69;56.85;100571.44;5086997;28;1107;-52
2022/08/10 05:27:27;;;;;;;;;;;;;;;16.70;56.93;100562.06;5090727;28;985;-50
2022/08/10 05:29:52;;;;;;;;;;;;;;;16.67;56.76;100570.88;5090218;28;1104;-50
2022/08/10 05:32:18;;;;;;;;;;;;;;;16.66;56.95;100576.66;5087284;28;981;-49
2022/08/10 05:34:43;;;;;;;;;;;;;;;16.67;57.12;100581.06;5079502;28;1906;-49
2022/08/10 05:37:09;;;;;;;;;;;;;;;16.65;56.93;100581.34;5079413;28;1817;-52
2022/08/10 05:39:34;;;;;;;;;;;;;;;16.67;57.08;100581.84;5064770;28;1198;-49
2022/08/10 05:42:00;;;;;;;;;;;;;;;16.68;56.87;100574.47;5072548;28;1037;-47
2022/08/10 05:44:25;;;;;;;;;;;;;;;16.67;56.86;100579.13;5069078;28;1152;-48
2022/08/10 05:46:51;;;;;;;;;;;;;;;16.70;57.44;100575.81;5055976;28;1033;-53
2022/08/10 05:49:16;;;;;;;;;;;;;;;18.15;54.78;100569.53;5080065;28;962;-50
2022/08/10 05:51:42;;;;;;;;;;;;;;;16.99;56.02;100574.38;5084960;28;989;-53
2022/08/10 05:54:13;;;;;;;;;;;;;;;16.76;54.45;100571.97;5067110;28;1906;-48
2022/08/10 05:56:39;;;;;;;;;;;;;;;16.61;53.78;100574.75;5068918;28;942;-50
2022/08/10 05:59:04;;;;;;;;;;;;;;;17.17;55.30;100576.50;5085442;28;993;-50
2022/08/10 06:01:30;;;;;;;;;;;;;;;17.40;56.06;100564.00;5087128;28;1009;-50
2022/08/10 06:03:59;;;;;;;;;;;;;;;17.08;54.93;100573.50;5072269;28;993;-50
2022/08/10 06:06:24;;;;;;;;;;;;;;;16.98;53.61;100570.78;5063902;28;1887;-52
2022/08/10 06:08:50;;;;;;;;;;;;;;;16.87;53.28;100577.41;5068476;28;1005;-52
2022/08/10 06:11:15;;;;;;;;;;;;;;;16.83;52.39;100574.41;5054438;28;1029;-52
2022/08/10 06:16:28;;;;;;;;;;;;;;;16.77;51.92;100565.38;5069550;28;961;-52
2022/08/10 06:18:54;;;;;;;;;;;;;;;16.74;51.65;100574.16;5055683;28;989;-50
2022/08/10 06:21:19;;;;;;;;;;;;;;;16.79;51.51;100572.50;5064608;28;973;-50
2022/08/10 06:23:44;;;;;;;;;;;;;;;16.83;51.17;100576.31;5056290;28;993;-49
2022/08/10 06:26:10;;;;;;;;;;;;;;;16.84;50.93;100562.31;5075733;28;1044;-51
2022/08/10 06:28:39;;;;;;;;;;;;;;;16.76;51.08;100566.47;5075081;28;1124;-49
2022/08/10 06:31:05;;;;;;;;;;;;;;;16.81;50.84;100562.06;5058916;28;1080;-50
2022/08/10 06:33:31;;;;;;;;;;;;;;;16.75;50.88;100575.78;5073443;28;1147;-50
2022/08/10 06:35:56;;;;;;;;;;;;;;;16.91;51.30;100570.28;5051658;28;1150;-47
2022/08/10 06:38:22;;;;;;;;;;;;;;;16.86;51.34;100570.28;5073221;28;2583;-49
2022/08/10 06:40:48;;;;;;;;;;;;;;;16.86;51.13;100576.59;5058406;28;1158;-50
2022/08/10 06:43:14;;;;;;;;;;;;;;;16.97;50.62;100576.56;5071095;28;973;-49
2022/08/10 06:46:00;;;;;;;;;;;;;;;16.90;50.42;100571.38;5068538;28;966;-51
2022/08/10 06:48:34;;;;;;;;;;;;;;;16.94;50.51;100561.47;5071337;28;1126;-51
2022/08/10 06:51:00;;;;;;;;;;;;;;;16.95;50.05;100563.13;5051836;28;1033;-49
2022/08/10 06:53:35;;;;;;;;;;;;;;;16.95;50.48;100567.81;5073840;28;961;-49
2022/08/10 06:56:03;;;;;;;;;;;;;;;17.02;50.17;100562.81;5071522;28;1084;-52
2022/08/10 06:58:31;;;;;;;;;;;;;;;16.98;50.13;100573.53;5066088;28;911;-52
2022/08/10 07:00:56;;;;;;;;;;;;;;;17.17;50.86;100570.19;5069935;28;1116;-47
2022/08/10 07:03:24;;;;;;;;;;;;;;;17.07;51.07;100565.56;5077265;28;1047;-50
2022/08/10 07:05:49;;;;;;;;;;;;;;;17.09;50.40;100563.34;5059276;28;1084;-52
2022/08/10 07:08:16;;;;;;;;;;;;;;;17.08;50.23;100567.19;5066986;28;2500;-46
2022/08/10 07:10:41;;;;;;;;;;;;;;;17.10;50.06;100570.47;5065974;28;831;-46
2022/08/10 07:13:07;;;;;;;;;;;;;;;17.05;50.13;100584.22;5049670;28;1037;-49
2022/08/10 07:15:32;;;;;;;;;;;;;;;17.04;50.15;100580.69;5054657;28;2003;-47
2022/08/10 07:17:58;;;;;;;;;;;;;;;17.00;50.02;100571.34;5052773;28;1744;-49
2022/08/10 07:20:24;;;;;;;;;;;;;;;17.04;49.94;100580.69;5055697;28;1052;-47
2022/08/10 07:22:50;;;;;;;;;;;;;;;17.08;49.96;100562.53;5051925;28;923;-47
2022/08/10 07:25:18;;;;;;;;;;;;;;;17.05;49.81;100568.56;5056066;28;1001;-53
2022/08/10 07:27:43;;;;;;;;;;;;;;;17.13;49.72;100574.59;5058514;28;1249;-49
2022/08/10 07:30:09;;;;;;;;;;;;;;;17.08;49.83;100573.50;5053986;28;1132;-50
2022/08/10 07:32:34;;;;;;;;;;;;;;;17.08;50.24;100568.03;5069204;28;1052;-47
2022/08/10 07:35:00;;;;;;;;;;;;;;;17.16;49.59;100568.53;5065812;28;1913;-45
2022/08/10 07:37:25;;;;;;;;;;;;;;;17.13;49.73;100571.84;5050002;28;2400;-46
2022/08/10 07:39:51;;;;;;;;;;;;;;;17.13;49.57;100575.41;5069963;28;1024;-51
2022/08/10 07:42:20;;;;;;;;;;;;;;;17.12;49.71;100556.47;5068661;28;981;-49
2022/08/10 07:44:46;;;;;;;;;;;;;;;17.06;49.75;100559.22;5068783;28;1036;-48
2022/08/10 07:47:13;;;;;;;;;;;;;;;17.07;49.62;100566.38;5051121;28;975;-46
2022/08/10 07:49:38;;;;;;;;;;;;;;;17.16;49.44;100571.28;5069600;28;1033;-47
2022/08/10 07:52:07;;;;;;;;;;;;;;;17.16;49.63;100576.78;5055569;28;1101;-48
2022/08/10 07:54:34;;;;;;;;;;;;;;;17.21;49.53;100574.00;5070006;28;1909;-50
2022/08/10 07:57:00;;;;;;;;;;;;;;;17.12;49.64;100573.75;5038621;28;1325;-48
2022/08/10 07:59:30;;;;;;;;;;;;;;;17.16;49.29;100579.53;5068072;28;874;-53
2022/08/10 08:01:56;;;;;;;;;;;;;;;17.19;49.32;100567.97;5052287;28;1198;-46
2022/08/10 08:04:22;;;;;;;;;;;;;;;17.19;49.37;100568.78;5066238;28;985;-48
2022/08/10 08:06:48;;;;;;;;;;;;;;;17.08;49.73;100570.78;5055259;28;2409;-50
2022/08/10 08:09:14;;;;;;;;;;;;;;;17.13;49.54;100558.94;5058557;28;973;-52
2022/08/10 08:11:40;;;;;;;;;;;;;;;17.22;49.37;100567.38;5060868;28;938;-46
2022/08/10 08:14:06;;;;;;;;;;;;;;;17.15;49.45;100564.94;5064969;28;1981;-50
2022/08/10 08:16:31;;;;;;;;;;;;;;;17.19;49.25;100568.78;5070918;28;1020;-47
2022/08/10 08:18:57;;;;;;;;;;;;;;;17.16;49.60;100568.53;5051589;28;1131;-51
2022/08/10 08:21:22;;;;;;;;;;;;;;;17.13;49.52;100571.84;5072202;28;977;-52
2022/08/10 08:23:48;;;;;;;;;;;;;;;17.11;49.60;100566.63;5069471;28;874;-50
2022/08/10 08:26:14;;;;;;;;;;;;;;;17.15;49.54;100564.13;5055814;28;1013;-49
2022/08/10 08:28:39;;;;;;;;;;;;;;;17.26;49.42;100584.97;5072696;28;1119;-48
2022/08/10 08:31:04;;;;;;;;;;;;;;;17.23;49.26;100580.84;5056747;28;1148;-51
2022/08/10 08:33:30;;;;;;;;;;;;;;;17.20;49.38;100595.16;5075621;28;1048;-50
2022/08/10 08:35:56;;;;;;;;;;;;;;;17.17;49.31;100600.41;5051481;28;1910;-50
2022/08/10 08:38:22;;;;;;;;;;;;;;;17.19;49.15;100599.00;5056809;28;2342;-46
2022/08/10 08:40:49;;;;;;;;;;;;;;;17.26;49.21;100598.69;5047917;28;1044;-50
2022/08/10 08:43:23;;;;;;;;;;;;;;;17.23;49.30;100596.53;5052852;28;1013;-45
2022/08/10 08:46:27;;;;;;;;;;;;;;;17.27;49.09;100606.66;5051248;28;1194;-46
2022/08/10 08:48:56;;;;;;;;;;;;;;;17.24;49.08;100604.47;5005188;28;1036;-50
2022/08/10 08:51:25;;;;;;;;;;;;;;;17.24;48.95;100615.47;5050578;28;986;-50
2022/08/10 08:53:50;;;;;;;;;;;;;;;17.27;48.98;100620.41;5055989;28;1969;-47
2022/08/10 08:56:34;;;;;;;;;;;;;;;17.31;48.99;100617.91;5073516;28;1143;-49
2022/08/10 08:59:18;;;;;;;;;;;;;;;17.23;49.08;100618.50;5068494;28;1490;-49
2022/08/10 09:01:48;;;;;;;;;;;;;;;17.28;48.82;100634.97;5058246;28;966;-48
2022/08/10 09:04:22;;;;;;;;;;;;;;;17.26;48.86;100645.41;5069082;28;969;-50
2022/08/10 09:07:08;;;;;;;;;;;;;;;17.30;48.80;100641.00;5058618;28;1829;-49
2022/08/10 09:09:50;;;;;;;;;;;;;;;17.30;48.73;100652.00;5065111;28;1414;-48
2022/08/10 09:12:33;;;;;;;;;;;;;;;17.22;48.67;100656.16;5038296;28;1057;-48
2022/08/10 09:15:01;;;;;;;;;;;;;;;17.29;48.52;100666.81;5051341;28;1997;-48
2022/08/10 09:17:30;;;;;;;;;;;;;;;17.26;48.38;100667.41;5067614;28;973;-50
2022/08/10 09:20:15;;;;;;;;;;;;;;;17.23;48.51;100681.69;5043572;28;1116;-50
2022/08/10 09:22:48;;;;;;;;;;;;;;;17.30;48.12;100676.72;5045545;28;986;-52
2022/08/10 09:25:13;;;;;;;;;;;;;;;17.27;48.21;100696.53;5046030;28;1076;-50
2022/08/10 09:27:44;;;;;;;;;;;;;;;17.26;48.30;100692.13;5074996;28;1024;-52
2022/08/10 09:30:10;;;;;;;;;;;;;;;17.28;48.04;100687.19;5060295;28;1048;-45
2022/08/10 09:32:39;;;;;;;;;;;;;;;17.28;48.11;100676.19;5039320;28;1116;-48
2022/08/10 09:35:07;;;;;;;;;;;;;;;17.24;48.27;100683.34;5067020;28;1988;-48
2022/08/10 09:37:42;;;;;;;;;;;;;;;17.20;47.93;100674.03;5072167;28;1753;-45
2022/08/10 09:40:26;;;;;;;;;;;;;;;17.22;48.24;100674.56;5041029;28;997;-49
2022/08/10 09:43:10;;;;;;;;;;;;;;;17.31;47.99;100686.63;5059360;28;1368;-48
2022/08/10 09:46:02;;;;;;;;;;;;;;;17.22;47.95;100664.41;5071012;28;981;-50
2022/08/10 09:48:31;;;;;;;;;;;;;;;17.19;48.10;100658.63;5067582;28;1145;-52
2022/08/10 09:51:02;;;;;;;;;;;;;;;17.25;47.99;100671.25;5076961;28;1131;-50
2022/08/10 09:53:41;;;;;;;;;;;;;;;17.16;48.46;100668.25;5068426;28;982;-54
2022/08/10 09:56:06;;;;;;;;;;;;;;;17.28;48.05;100673.44;5071431;28;961;-50
2022/08/10 09:58:44;;;;;;;;;;;;;;;17.26;48.30;100660.00;5062707;28;1005;-54
2022/08/10 10:01:16;;;;;;;;;;;;;;;17.28;48.04;100651.47;5070034;28;966;-50
2022/08/10 10:03:44;;;;;;;;;;;;;;;17.27;48.12;100649.81;5074328;28;1044;-51
2022/08/10 10:06:15;;;;;;;;;;;;;;;17.28;48.07;100667.94;5057945;28;2366;-51
2022/08/10 10:08:59;;;;;;;;;;;;;;;17.24;48.32;100661.38;5064993;28;1203;-50
2022/08/10 10:11:32;;;;;;;;;;;;;;;17.25;48.17;100660.25;5064004;28;1179;-53
2022/08/10 10:14:03;;;;;;;;;;;;;;;17.30;48.08;100656.69;5052300;28;1970;-47
2022/08/10 10:16:48;;;;;;;;;;;;;;;17.20;48.40;100669.34;5061602;28;891;-50
2022/08/10 10:19:22;;;;;;;;;;;;;;;17.30;48.00;100668.47;5061919;28;973;-46
2022/08/10 10:22:03;;;;;;;;;;;;;;;17.25;48.02;100654.75;5073314;28;977;-44
2022/08/10 10:24:33;;;;;;;;;;;;;;;17.27;48.36;100667.09;5063977;28;1131;-51
2022/08/10 10:27:05;;;;;;;;;;;;;;;17.27;47.96;100660.81;5074385;28;988;-53
2022/08/10 10:29:39;;;;;;;;;;;;;;;17.28;48.12;100662.47;5077535;28;1111;-54
2022/08/10 10:32:08;;;;;;;;;;;;;;;17.29;48.19;100664.06;5070980;28;874;-51
2022/08/10 10:34:40;;;;;;;;;;;;;;;17.23;48.30;100659.72;5064464;28;1905;-54
2022/08/10 10:37:05;;;;;;;;;;;;;;;17.22;48.43;100658.91;5055640;28;1786;-53
2022/08/10 10:39:31;;;;;;;;;;;;;;;17.32;48.31;100655.28;5073527;28;997;-52
2022/08/10 10:42:11;;;;;;;;;;;;;;;17.26;48.16;100659.16;5056081;28;1092;-56
2022/08/10 10:44:49;;;;;;;;;;;;;;;17.34;48.05;100657.75;5045022;28;1049;-55
2022/08/10 10:47:15;;;;;;;;;;;;;;;17.28;48.17;100660.53;5069367;28;1024;-52
2022/08/10 10:49:49;;;;;;;;;;;;;;;17.28;48.12;100659.72;5074764;28;1075;-53
2022/08/10 10:52:18;;;;;;;;;;;;;;;17.24;48.09;100650.38;5076080;28;1044;-53
2022/08/10 10:54:55;;;;;;;;;;;;;;;17.24;48.18;100645.69;5058324;28;1906;-47
2022/08/10 10:57:27;;;;;;;;;;;;;;;17.30;47.97;100667.66;5045832;28;1315;-51
2022/08/10 11:00:03;;;;;;;;;;;;;;;17.27;48.34;100664.38;5059992;28;1100;-53
2022/08/10 11:02:37;;;;;;;;;;;;;;;17.33;48.16;100656.91;5060355;28;1108;-53
2022/08/10 11:05:03;;;;;;;;;;;;;;;17.29;48.05;100666.81;5056288;28;986;-52
2022/08/10 11:07:33;;;;;;;;;;;;;;;17.30;48.07;100659.44;5064343;28;1899;-53
2022/08/10 11:10:07;;;;;;;;;;;;;;;17.23;48.33;100667.97;5049384;28;1037;-51
2022/08/10 11:12:32;;;;;;;;;;;;;;;17.26;48.40;100668.25;5064784;28;1138;-52
2022/08/10 11:15:02;;;;;;;;;;;;;;;17.31;48.26;100656.38;5071854;28;1905;-47
2022/08/10 11:17:31;;;;;;;;;;;;;;;17.28;48.44;100654.22;5053583;28;989;-49
2022/08/10 11:20:17;;;;;;;;;;;;;;;17.40;48.19;100645.63;5073872;28;993;-51
2022/08/10 11:23:01;;;;;;;;;;;;;;;17.37;48.34;100663.50;5063812;28;946;-52
2022/08/10 11:25:30;;;;;;;;;;;;;;;17.41;48.03;100658.28;5057770;28;1156;-48
2022/08/10 11:28:06;;;;;;;;;;;;;;;17.38;48.00;100643.16;5048685;28;1064;-48
2022/08/10 11:30:32;;;;;;;;;;;;;;;17.36;48.30;100645.38;5054591;28;1136;-48
2022/08/10 11:33:00;;;;;;;;;;;;;;;17.34;48.03;100660.50;5061453;28;1076;-49
2022/08/10 11:35:29;;;;;;;;;;;;;;;17.37;48.07;100658.00;5065304;28;1917;-53
2022/08/10 11:37:56;;;;;;;;;;;;;;;17.41;47.83;100650.84;5070021;28;1753;-50
2022/08/10 11:40:27;;;;;;;;;;;;;;;17.37;48.07;100651.69;5058743;28;1242;-51
2022/08/10 11:43:02;;;;;;;;;;;;;;;17.30;48.29;100652.00;5051544;28;1001;-50
2022/08/10 11:45:28;;;;;;;;;;;;;;;17.36;48.20;100650.88;5050887;28;958;-51
2022/08/10 11:48:13;;;;;;;;;;;;;;;17.35;48.29;100662.97;5067991;28;985;-50
2022/08/10 11:50:47;;;;;;;;;;;;;;;17.42;48.19;100648.94;5029144;28;1152;-49
2022/08/10 11:53:18;;;;;;;;;;;;;;;17.38;48.33;100648.66;5049074;28;1001;-50
2022/08/10 11:55:48;;;;;;;;;;;;;;;17.39;48.39;100653.06;5041486;28;1984;-52
2022/08/10 12:01:00;;;;;;;;;;;;;;;17.36;48.45;100639.88;5053059;28;1179;-51
2022/08/10 12:03:26;;;;;;;;;;;;;;;17.43;48.25;100642.31;5065161;28;1029;-50
2022/08/10 12:05:51;;;;;;;;;;;;;;;17.42;48.30;100643.44;5067607;28;1188;-52
2022/08/10 12:08:18;;;;;;;;;;;;;;;17.39;48.28;100647.56;5045161;28;2530;-54
2022/08/10 12:10:44;;;;;;;;;;;;;;;17.44;48.22;100642.03;5061516;28;1032;-50
2022/08/10 12:13:17;;;;;;;;;;;;;;;17.41;48.18;100648.09;5060604;28;906;-52
2022/08/10 12:15:58;;;;;;;;;;;;;;;17.39;48.47;100639.31;5074557;28;1979;-53
2022/08/10 12:18:31;;;;;;;;;;;;;;;17.41;48.32;100634.34;5075623;28;1001;-52
2022/08/10 12:20:58;;;;;;;;;;;;;;;17.50;47.98;100636.50;5046568;28;1021;-50
2022/08/10 12:23:34;;;;;;;;;;;;;;;17.43;48.24;100634.91;5051798;28;973;-50
2022/08/10 12:26:08;;;;;;;;;;;;;;;17.45;48.13;100643.66;5058554;28;1302;-52
2022/08/10 12:28:36;;;;;;;;;;;;;;;17.50;48.22;100634.59;5039048;28;1089;-48
2022/08/10 12:31:01;;;;;;;;;;;;;;;17.44;48.22;100641.22;5056669;28;1156;-52
2022/08/10 12:33:41;;;;;;;;;;;;;;;17.47;48.13;100642.56;5047504;28;1160;-54
2022/08/10 12:36:07;;;;;;;;;;;;;;;17.47;48.06;100645.31;5046683;28;2501;-54
2022/08/10 12:38:35;;;;;;;;;;;;;;;17.45;48.17;100648.34;5078341;28;1006;-53
2022/08/10 12:41:02;;;;;;;;;;;;;;;17.44;48.33;100644.78;5050902;28;1152;-52
2022/08/10 12:43:31;;;;;;;;;;;;;;;17.45;48.24;100642.84;5045516;28;1119;-53
2022/08/10 12:46:12;;;;;;;;;;;;;;;17.45;48.26;100643.66;5038812;28;1070;-52
2022/08/10 12:48:38;;;;;;;;;;;;;;;17.43;48.46;100637.66;5056199;28;1178;-55
2022/08/10 12:51:04;;;;;;;;;;;;;;;17.45;48.29;100632.69;5044700;28;1465;-54
2022/08/10 12:53:48;;;;;;;;;;;;;;;17.50;48.12;100639.25;5058703;28;982;-54
2022/08/10 12:56:27;;;;;;;;;;;;;;;17.44;48.52;100646.72;5065052;28;1000;-54
2022/08/10 12:58:52;;;;;;;;;;;;;;;17.43;48.51;100651.41;5063051;28;982;-46
2022/08/10 13:01:18;;;;;;;;;;;;;;;17.49;48.17;100654.09;5037352;28;1146;-54
2022/08/10 13:03:46;;;;;;;;;;;;;;;17.51;48.25;100652.72;5059329;28;911;-50
2022/08/10 13:06:12;;;;;;;;;;;;;;;17.47;48.07;100665.38;5063543;28;2532;-53